Terminal Aerodrome Forecast
Issued by NWS

Home | Current Version | Previous Version | Graphics & Text | Print | Product List | Glossary On
Versions: 1 2 3 4 5 6 7 8 9 10 11 12 13 14 15
000
FTUS43 KGRB 280500
TAFAUW
TAF
KAUW 280530Z 2806/2906 15003KT P6SM SCT250
     FM280800 00000KT 6SM BR SCT250
      TEMPO 2809/2813 3SM BR
     FM281400 22005KT P6SM SCT050 BKN250
     FM282300 21003KT P6SM SKC=

USA.gov is the U.S. government's official web portal to all federal, state and local government web resources and services.